This is the latest recevied weather packets stored in our database for station/object IU1INZ-13. If no packets are shown the sender has not sent any weather packets the latest 10 day(s).
| Time | Temp. | Humidity | Pressure | Rain* | Wind** | Luminosity | Snow |
|---|---|---|---|---|---|---|---|
| 1777756539 | 15° C | 67% | 1021.3 hPa | 0 mm | - | - | - |
| 1777755639 | 15.56° C | 66% | 1021.5 hPa | 0 mm | - | - | - |
| 1777754734 | 15.56° C | 66% | 1021.5 hPa | 0 mm | - | - | - |
| 1777753830 | 15.56° C | 67% | 1021.5 hPa | 0 mm | - | - | - |
| 1777752935 | 15.56° C | 67% | 1021.7 hPa | 0 mm | - | - | - |
| 1777752032 | 16.11° C | 66% | 1021.5 hPa | 0 mm | - | - | - |
| 1777751134 | 16.67° C | 65% | 1021.4 hPa | 0 mm | - | - | - |
| 1777750233 | 17.22° C | 63% | 1021.2 hPa | 0 mm | - | - | - |
| 1777749333 | 17.78° C | 61% | 1021 hPa | 0 mm | - | - | - |
| 1777748437 | 18.33° C | 58% | 1021 hPa | 0 mm | - | - | - |
| 1777747548 | 19.44° C | 53% | 1020.8 hPa | 0 mm | - | - | - |
| 1777746649 | 20° C | 52% | 1020.6 hPa | 0 mm | - | - | - |
| 1777745740 | 20.56° C | 49% | 1020.6 hPa | 0 mm | - | - | - |
| 1777744833 | 21.11° C | 47% | 1020.5 hPa | 0 mm | - | - | - |
| 1777743942 | 21.67° C | 42% | 1020.6 hPa | 0 mm | - | - | - |
| 1777743041 | 22.22° C | 41% | 1020.7 hPa | 0 mm | - | - | - |
| 1777742135 | 22.78° C | 41% | 1020.6 hPa | 0 mm | - | - | - |
| 1777741244 | 22.78° C | 43% | 1020.7 hPa | 0 mm | - | - | - |
| 1777740341 | 22.78° C | 43% | 1020.8 hPa | 0 mm | - | - | - |
| 1777739444 | 22.78° C | 42% | 1020.8 hPa | 0 mm | - | - | - |
| 1777738532 | 22.78° C | 44% | 1021 hPa | 0 mm | - | - | - |
| 1777737642 | 22.78° C | 41% | 1021.1 hPa | 0 mm | - | - | - |
| 1777736738 | 23.33° C | 40% | 1021.2 hPa | 0 mm | - | - | - |
| 1777735835 | 23.33° C | 43% | 1021.5 hPa | 0 mm | - | - | - |
| 1777734938 | 23.33° C | 41% | 1021.5 hPa | 0 mm | - | - | - |
* Rain latest hour (hover to see other rain measurements)
** Current wind speed in m/s (hover to see current wind gust speed)